createdAt,value
2023-06-14T00:02:28.068Z,97898.91
2023-06-14T00:05:18.621Z,97890.66
2023-06-14T00:08:09.410Z,97890.66
2023-06-14T00:10:57.975Z,97882.38
2023-06-14T00:13:47.135Z,97882.78
2023-06-14T00:16:36.852Z,97886.91
2023-06-14T00:19:29.009Z,97884.22
2023-06-14T00:22:19.960Z,97887.03
2023-06-14T00:25:28.127Z,97880.63
2023-06-14T00:28:17.888Z,97879.00
2023-06-14T00:31:06.937Z,97876.06
2023-06-14T00:33:55.529Z,97871.50
2023-06-14T00:36:45.150Z,97876.88
2023-06-14T00:39:35.685Z,97881.19
2023-06-14T00:42:28.848Z,97878.06
2023-06-14T00:45:18.974Z,97874.75
2023-06-14T00:48:11.585Z,97877.59
2023-06-14T00:51:03.412Z,97876.34
2023-06-14T00:53:54.207Z,97871.13
2023-06-14T00:56:46.617Z,97877.47
2023-06-14T00:59:40.406Z,97875.13
2023-06-14T01:02:29.878Z,97875.50
2023-06-14T01:05:20.263Z,97872.38
2023-06-14T01:08:25.346Z,97886.38
2023-06-14T01:11:21.455Z,97881.34
2023-06-14T01:14:15.813Z,97871.81
2023-06-14T01:17:06.996Z,97880.78
2023-06-14T01:19:59.272Z,97874.81
2023-06-14T01:22:55.717Z,97879.09
2023-06-14T01:25:45.737Z,97884.00
2023-06-14T01:28:38.429Z,97891.41
2023-06-14T01:31:31.790Z,97895.88
2023-06-14T01:34:21.851Z,97896.25
2023-06-14T01:37:13.203Z,97899.06
2023-06-14T01:40:06.454Z,97903.97
2023-06-14T01:42:56.352Z,97901.47
2023-06-14T01:45:50.162Z,97896.81
2023-06-14T01:48:39.941Z,97896.00
2023-06-14T01:51:34.583Z,97895.09
2023-06-14T01:54:27.101Z,97895.84
2023-06-14T01:57:17.666Z,97892.72
2023-06-14T02:00:12.389Z,97890.13
2023-06-14T02:03:02.597Z,97890.88
2023-06-14T02:05:50.573Z,97902.03
2023-06-14T02:08:45.317Z,97902.84
2023-06-14T02:11:34.025Z,97901.06
2023-06-14T02:14:30.429Z,97905.16
2023-06-14T02:17:18.639Z,97901.34
2023-06-14T02:20:11.091Z,97900.72
2023-06-14T02:23:04.002Z,97909.66
2023-06-14T02:25:52.495Z,97909.13
2023-06-14T02:28:40.943Z,97903.63
2023-06-14T02:31:31.614Z,97906.81
2023-06-14T02:34:21.477Z,97920.72
2023-06-14T02:37:12.204Z,97923.94
2023-06-14T02:40:02.174Z,97923.75
2023-06-14T02:42:51.069Z,97921.81
2023-06-14T02:45:40.026Z,97910.03
2023-06-14T02:48:30.673Z,97918.97
2023-06-14T02:51:19.389Z,97919.31
2023-06-14T02:54:09.642Z,97918.22
2023-06-14T02:57:00.367Z,97917.69
2023-06-14T02:59:48.627Z,97924.94
2023-06-14T03:02:43.888Z,97923.22
2023-06-14T03:05:35.564Z,97923.56
2023-06-14T03:08:28.603Z,97928.97
2023-06-14T03:11:19.823Z,97939.00
2023-06-14T03:14:10.123Z,97939.56
2023-06-14T03:16:59.307Z,97935.31
2023-06-14T03:19:47.977Z,97939.72
2023-06-14T03:22:40.995Z,97936.91
2023-06-14T03:25:31.459Z,97934.44
2023-06-14T03:28:21.162Z,97946.09
2023-06-14T03:31:10.248Z,97936.59
2023-06-14T03:34:03.266Z,97947.44
2023-06-14T03:36:53.268Z,97943.47
2023-06-14T03:39:47.757Z,97945.97
2023-06-14T03:42:39.060Z,97961.50
2023-06-14T03:45:27.524Z,97963.53
2023-06-14T03:48:16.470Z,97963.34
2023-06-14T03:51:06.785Z,97967.66
2023-06-14T03:54:30.216Z,97976.19
2023-06-14T03:57:17.978Z,97971.22
2023-06-14T04:00:08.966Z,97976.53
2023-06-14T04:03:02.773Z,97978.59
2023-06-14T04:05:52.826Z,97987.56
2023-06-14T04:08:44.409Z,97983.75
2023-06-14T04:11:36.616Z,97985.56
2023-06-14T04:14:34.360Z,97985.69
2023-06-14T04:17:30.270Z,97991.50
2023-06-14T04:20:29.896Z,97998.13
2023-06-14T04:23:25.466Z,97987.09
2023-06-14T04:26:15.045Z,97997.44
2023-06-14T04:29:03.807Z,97996.09
2023-06-14T04:31:57.060Z,97994.72
2023-06-14T04:34:46.012Z,97998.69
2023-06-14T04:37:35.255Z,97992.94
2023-06-14T04:40:26.096Z,97994.59
2023-06-14T04:43:18.603Z,98002.50
2023-06-14T04:46:10.970Z,98002.16
2023-06-14T04:49:19.152Z,98002.16
2023-06-14T04:52:12.119Z,97999.78
2023-06-14T04:55:33.434Z,98006.41
2023-06-14T04:58:21.609Z,98007.66
2023-06-14T05:01:14.755Z,98006.56
2023-06-14T05:04:05.526Z,98007.19
2023-06-14T05:06:57.868Z,97998.09
2023-06-14T05:09:48.065Z,98000.69
2023-06-14T05:12:36.948Z,97996.25
2023-06-14T05:15:30.304Z,97999.47
2023-06-14T05:18:21.403Z,98001.69
2023-06-14T05:21:10.562Z,97999.75
2023-06-14T05:24:01.713Z,98004.03
2023-06-14T05:33:01.332Z,98017.00
2023-06-14T05:35:52.043Z,98024.25
2023-06-14T05:38:41.189Z,98020.81
2023-06-14T05:41:48.826Z,98026.63
2023-06-14T05:44:39.083Z,98035.75
2023-06-14T05:47:29.641Z,98026.31
2023-06-14T05:50:18.464Z,98034.06
2023-06-14T05:53:09.066Z,98030.16
2023-06-14T05:55:58.793Z,98032.28
2023-06-14T05:58:49.632Z,98029.22
2023-06-14T06:01:45.948Z,98034.28
2023-06-14T06:04:39.306Z,98035.41
2023-06-14T06:07:38.127Z,98035.91
2023-06-14T06:10:29.186Z,98037.38
2023-06-14T06:13:17.994Z,98033.88
2023-06-14T06:16:08.398Z,98029.72
2023-06-14T06:19:00.101Z,98035.09
2023-06-14T06:21:49.690Z,98033.38
2023-06-14T06:24:38.454Z,98031.63
2023-06-14T06:27:27.861Z,98040.81
2023-06-14T06:30:26.162Z,98030.97
2023-06-14T06:33:26.042Z,98029.97
2023-06-14T06:36:16.908Z,98023.94
2023-06-14T06:39:11.362Z,98022.63
2023-06-14T06:42:00.538Z,98031.25
2023-06-14T06:44:50.301Z,98028.22
2023-06-14T06:47:39.051Z,98030.75
2023-06-14T06:50:36.716Z,98030.00
2023-06-14T06:53:39.197Z,98036.09
2023-06-14T06:56:30.702Z,98032.28
2023-06-14T06:59:22.320Z,98032.81
2023-06-14T07:02:11.928Z,98034.84
2023-06-14T07:05:07.696Z,98040.19
2023-06-14T07:08:08.022Z,98045.16
2023-06-14T07:10:57.226Z,98040.75
2023-06-14T07:13:49.751Z,98040.81
2023-06-14T07:16:41.262Z,98043.91
2023-06-14T07:19:33.737Z,98038.59
2023-06-14T07:22:24.575Z,98037.63
2023-06-14T07:25:16.930Z,98035.41
2023-06-14T07:28:13.306Z,98044.63
2023-06-14T07:31:09.579Z,98047.69
2023-06-14T07:33:57.878Z,98048.34
2023-06-14T07:36:50.451Z,98054.50
2023-06-14T07:39:38.961Z,98045.91
2023-06-14T07:42:29.126Z,98055.28
2023-06-14T07:45:21.150Z,98052.38
2023-06-14T07:48:10.491Z,98051.13
2023-06-14T07:50:58.670Z,98053.53
2023-06-14T07:53:47.774Z,98055.03
2023-06-14T07:56:38.216Z,98059.69
2023-06-14T07:59:30.143Z,98059.88
2023-06-14T08:02:19.454Z,98055.31
2023-06-14T08:05:14.134Z,98055.34
2023-06-14T08:08:04.424Z,98056.03
2023-06-14T08:10:55.403Z,98059.41
2023-06-14T08:13:46.964Z,98052.19
2023-06-14T08:16:37.909Z,98055.91
2023-06-14T08:19:30.172Z,98056.81
2023-06-14T08:22:22.137Z,98060.00
2023-06-14T08:25:16.722Z,98053.06
2023-06-14T08:28:07.610Z,98057.59
2023-06-14T08:34:05.533Z,98057.50
2023-06-14T08:36:57.451Z,98072.22
2023-06-14T08:39:52.443Z,98059.97
2023-06-14T08:42:49.430Z,98061.50
2023-06-14T08:45:53.492Z,98059.63
2023-06-14T08:48:43.559Z,98051.44
2023-06-14T08:51:46.019Z,98058.06
2023-06-14T08:54:47.350Z,98050.63
2023-06-14T08:57:40.805Z,98059.72
2023-06-14T09:00:49.940Z,98061.59
2023-06-14T09:03:47.279Z,98061.09
2023-06-14T09:06:55.976Z,98058.78
2023-06-14T09:10:07.137Z,98052.69
2023-06-14T09:12:57.241Z,98058.44
2023-06-14T09:15:48.459Z,98068.75
2023-06-14T09:19:00.204Z,98057.53
2023-06-14T09:22:01.281Z,98060.69
2023-06-14T09:24:51.082Z,98063.56
2023-06-14T09:27:41.000Z,98056.84
2023-06-14T09:30:33.003Z,98069.34
2023-06-14T09:33:21.802Z,98062.41
2023-06-14T09:36:21.733Z,98069.53
2023-06-14T09:39:15.081Z,98069.16
2023-06-14T09:42:04.531Z,98064.94
2023-06-14T09:44:58.743Z,98066.03
2023-06-14T09:48:04.286Z,98062.22
2023-06-14T09:51:11.065Z,98068.47
2023-06-14T09:54:05.656Z,98064.94
2023-06-14T09:56:58.070Z,98052.31
2023-06-14T09:59:58.142Z,98062.34
2023-06-14T10:03:01.794Z,98058.88
2023-06-14T10:06:04.654Z,98065.25
2023-06-14T10:08:57.219Z,98069.31
2023-06-14T10:11:50.621Z,98069.25
2023-06-14T10:14:50.806Z,98069.00
2023-06-14T10:17:56.964Z,98069.38
2023-06-14T10:21:08.860Z,98074.25
2023-06-14T10:24:12.875Z,98067.84
2023-06-14T10:27:15.262Z,98071.44
2023-06-14T10:30:16.232Z,98072.13
2023-06-14T10:33:11.411Z,98067.63
2023-06-14T10:36:43.267Z,98070.69
2023-06-14T10:39:33.227Z,98067.50
2023-06-14T10:42:23.993Z,98058.75
2023-06-14T10:45:18.542Z,98060.56
2023-06-14T10:48:09.019Z,98052.75
2023-06-14T10:54:14.698Z,98061.44
2023-06-14T10:57:02.807Z,98058.59
2023-06-14T10:59:51.305Z,98052.91
2023-06-14T11:03:31.707Z,98047.00
2023-06-14T11:06:30.166Z,98046.50
2023-06-14T11:10:15.337Z,98045.66
2023-06-14T11:13:04.157Z,98047.09
2023-06-14T11:16:08.957Z,98046.31
2023-06-14T11:19:03.099Z,98041.16
2023-06-14T11:21:52.477Z,98042.56
2023-06-14T11:24:42.159Z,98032.56
2023-06-14T11:27:32.268Z,98038.50
2023-06-14T11:30:23.274Z,98042.94
2023-06-14T11:33:14.160Z,98041.38
2023-06-14T11:36:13.502Z,98037.50
2023-06-14T11:39:17.915Z,98037.38
2023-06-14T11:42:09.645Z,98037.44
2023-06-14T11:45:07.893Z,98044.59
2023-06-14T11:48:03.730Z,98045.91
2023-06-14T11:50:54.201Z,98040.84
2023-06-14T11:53:47.771Z,98041.75
2023-06-14T11:56:52.279Z,98049.16
2023-06-14T11:59:42.187Z,98037.53
2023-06-14T12:02:35.723Z,98032.19
2023-06-14T12:05:25.269Z,98029.44
2023-06-14T12:08:23.595Z,98038.16
2023-06-14T12:11:24.905Z,98029.53
2023-06-14T12:14:14.163Z,98028.81
2023-06-14T12:17:13.787Z,98033.03
2023-06-14T12:20:15.689Z,98020.75
2023-06-14T12:23:07.977Z,98009.84
2023-06-14T12:26:06.186Z,98020.53
2023-06-14T12:28:57.240Z,98014.75
2023-06-14T12:31:47.545Z,98022.66
2023-06-14T12:37:55.798Z,98008.09
2023-06-14T12:40:44.997Z,98007.03
2023-06-14T12:43:45.087Z,98015.47
2023-06-14T12:46:37.487Z,98015.72
2023-06-14T12:49:28.815Z,98018.66
2023-06-14T12:52:20.756Z,98020.00
2023-06-14T12:55:13.425Z,98018.03
2023-06-14T12:58:02.372Z,98024.88
2023-06-14T13:00:51.121Z,98027.25
2023-06-14T13:03:43.434Z,98029.84
2023-06-14T13:09:36.999Z,98031.25
2023-06-14T13:12:26.766Z,98030.69
2023-06-14T13:15:15.649Z,98025.50
2023-06-14T13:18:04.483Z,98017.03
2023-06-14T13:20:54.697Z,98021.00
2023-06-14T13:23:50.978Z,98024.38
2023-06-14T13:26:42.952Z,98024.38
2023-06-14T13:29:32.511Z,98024.09
2023-06-14T13:32:24.649Z,98030.41
2023-06-14T13:35:13.657Z,98026.00
2023-06-14T13:38:18.611Z,98016.38
2023-06-14T13:41:09.820Z,98015.47
2023-06-14T13:43:58.728Z,98017.59
2023-06-14T13:46:50.767Z,98016.84
2023-06-14T13:49:41.406Z,98019.88
2023-06-14T13:52:32.377Z,98016.75
2023-06-14T13:55:25.563Z,98010.19
2023-06-14T13:58:42.517Z,98005.44
2023-06-14T14:01:30.934Z,98011.97
2023-06-14T14:04:21.368Z,98019.09
2023-06-14T14:07:14.505Z,98009.81
2023-06-14T14:10:08.213Z,98010.09
2023-06-14T14:12:59.213Z,98009.28
2023-06-14T14:15:48.721Z,98022.28
2023-06-14T14:18:37.436Z,98024.50
2023-06-14T14:21:26.141Z,98016.91
2023-06-14T14:24:14.492Z,98012.66
2023-06-14T14:27:06.857Z,98004.66
2023-06-14T14:29:57.158Z,98002.72
2023-06-14T14:32:49.442Z,97996.38
2023-06-14T14:35:41.185Z,97990.72
2023-06-14T14:38:30.085Z,98002.63
2023-06-14T14:41:18.722Z,98000.53
2023-06-14T14:44:18.306Z,98006.38
2023-06-14T14:47:09.735Z,98008.78
2023-06-14T14:49:59.459Z,98007.06
2023-06-14T14:52:49.398Z,98010.13
2023-06-14T14:58:41.194Z,97997.75
2023-06-14T15:01:29.876Z,97996.44
2023-06-14T15:04:23.500Z,97999.91
2023-06-14T15:07:12.058Z,98008.88
2023-06-14T15:10:03.259Z,97999.47
2023-06-14T15:12:53.320Z,97999.63
2023-06-14T15:15:43.736Z,98002.66
2023-06-14T15:18:36.969Z,98007.94
2023-06-14T15:21:32.417Z,97997.31
2023-06-14T15:24:38.005Z,98006.56
2023-06-14T15:27:33.301Z,97995.00
2023-06-14T15:30:36.500Z,97993.84
2023-06-14T15:33:24.931Z,97988.91
2023-06-14T15:36:16.377Z,97985.50
2023-06-14T15:39:06.572Z,97993.41
2023-06-14T15:41:55.002Z,97995.75
2023-06-14T15:44:44.250Z,97987.50
2023-06-14T15:47:46.831Z,97989.72
2023-06-14T15:50:38.702Z,97987.06
2023-06-14T15:53:31.867Z,97987.34
2023-06-14T15:56:22.228Z,97992.13
2023-06-14T15:59:13.273Z,97987.66
2023-06-14T16:02:04.273Z,97990.94
2023-06-14T16:04:55.911Z,97989.78
2023-06-14T16:07:47.668Z,97985.59
2023-06-14T16:10:36.182Z,97984.13
2023-06-14T16:13:27.294Z,97980.41
2023-06-14T16:16:16.698Z,97981.53
2023-06-14T16:19:22.315Z,97978.06
2023-06-14T16:22:14.516Z,97982.75
2023-06-14T16:25:07.952Z,97984.94
2023-06-14T16:31:10.588Z,97989.19
2023-06-14T16:34:14.507Z,97985.66
2023-06-14T16:37:07.168Z,97990.72
2023-06-14T16:39:57.471Z,97990.00
2023-06-14T16:42:53.544Z,97991.84
2023-06-14T16:45:42.678Z,97996.94
2023-06-14T16:48:35.521Z,98002.72
2023-06-14T16:51:25.050Z,98003.31
2023-06-14T16:54:13.853Z,97999.97
2023-06-14T16:57:02.960Z,98002.91
2023-06-14T16:59:52.150Z,98000.72
2023-06-14T17:02:41.009Z,97999.69
2023-06-14T17:05:32.855Z,98007.94
2023-06-14T17:08:25.455Z,98004.03
2023-06-14T17:11:16.371Z,98005.91
2023-06-14T17:14:07.540Z,98003.91
2023-06-14T17:17:01.690Z,98007.63
2023-06-14T17:19:53.716Z,98009.78
2023-06-14T17:22:44.918Z,98017.00
2023-06-14T17:25:34.444Z,98021.16
2023-06-14T17:28:24.607Z,98031.63
2023-06-14T17:31:18.320Z,98044.25
2023-06-14T17:34:15.040Z,98042.28
2023-06-14T17:37:08.428Z,98042.84
2023-06-14T17:40:02.301Z,98040.84
2023-06-14T17:42:53.526Z,98043.13
2023-06-14T17:45:48.955Z,98049.69
2023-06-14T17:48:41.617Z,98050.03
2023-06-14T17:51:40.405Z,98057.94
2023-06-14T17:54:29.508Z,98060.69
2023-06-14T17:57:20.954Z,98073.19
2023-06-14T18:00:13.241Z,98073.06
2023-06-14T18:03:11.807Z,98075.94
2023-06-14T18:06:06.760Z,98071.28
2023-06-14T18:08:57.380Z,98082.09
2023-06-14T18:11:48.366Z,98084.09
2023-06-14T18:14:41.842Z,98082.28
2023-06-14T18:17:34.191Z,98094.72
2023-06-14T18:20:23.550Z,98098.16
2023-06-14T18:23:13.964Z,98107.41
2023-06-14T18:26:05.323Z,98102.84
2023-06-14T18:29:02.807Z,98105.88
2023-06-14T18:31:52.905Z,98110.91
2023-06-14T18:34:41.997Z,98110.88
2023-06-14T18:37:32.236Z,98110.06
2023-06-14T18:40:25.147Z,98110.50
2023-06-14T18:49:25.655Z,98113.19
2023-06-14T18:52:15.868Z,98116.50
2023-06-14T18:55:26.040Z,98127.34
2023-06-14T18:58:30.227Z,98122.69
2023-06-14T19:04:44.217Z,98131.25
2023-06-14T19:08:14.921Z,98130.69
2023-06-14T19:11:04.865Z,98138.25
2023-06-14T19:14:00.761Z,98139.84
2023-06-14T19:17:07.392Z,98140.81
2023-06-14T19:19:59.544Z,98142.03
2023-06-14T19:35:55.183Z,98179.09
2023-06-14T19:38:44.489Z,98181.22
2023-06-14T19:44:45.648Z,98180.69
2023-06-14T19:47:34.303Z,98189.84
2023-06-14T19:53:56.255Z,98197.19
2023-06-14T19:56:56.900Z,98207.84
2023-06-14T19:59:46.060Z,98205.53
2023-06-14T20:02:43.382Z,98209.38
2023-06-14T20:05:35.154Z,98215.56
2023-06-14T20:08:25.578Z,98226.75
2023-06-14T20:11:33.235Z,98220.28
2023-06-14T20:14:26.112Z,98227.47
2023-06-14T20:17:34.104Z,98229.50
2023-06-14T20:20:29.154Z,98228.38
2023-06-14T20:23:20.315Z,98223.16
2023-06-14T20:26:11.829Z,98225.69
2023-06-14T20:29:02.347Z,98228.28
2023-06-14T20:31:52.366Z,98239.38
2023-06-14T20:34:42.378Z,98238.59
2023-06-14T20:37:31.372Z,98241.41
2023-06-14T20:40:24.393Z,98241.06
2023-06-14T20:43:13.709Z,98237.81
2023-06-14T20:46:08.509Z,98241.19
2023-06-14T20:48:56.885Z,98241.22
2023-06-14T20:51:53.225Z,98244.16
2023-06-14T20:54:45.956Z,98243.38
2023-06-14T20:57:34.714Z,98249.72
2023-06-14T21:00:25.030Z,98240.22
2023-06-14T21:03:16.485Z,98247.69
2023-06-14T21:06:08.224Z,98250.41
2023-06-14T21:08:57.598Z,98253.31
2023-06-14T21:11:45.778Z,98252.53
2023-06-14T21:14:37.157Z,98254.44
2023-06-14T21:17:28.647Z,98259.00
2023-06-14T21:20:20.856Z,98253.22
2023-06-14T21:23:11.000Z,98250.94
2023-06-14T21:25:59.842Z,98261.53
2023-06-14T21:28:48.712Z,98259.69
2023-06-14T21:31:37.359Z,98263.63
2023-06-14T21:34:26.926Z,98267.34
2023-06-14T21:37:16.783Z,98272.75
2023-06-14T21:40:05.296Z,98271.50
2023-06-14T21:42:54.251Z,98271.31
2023-06-14T21:45:43.064Z,98274.00
2023-06-14T21:48:31.908Z,98276.47
2023-06-14T21:51:21.474Z,98278.13
2023-06-14T21:57:22.494Z,98286.84
2023-06-14T22:00:15.004Z,98282.69
2023-06-14T22:03:04.536Z,98285.53
2023-06-14T22:05:52.991Z,98297.53
2023-06-14T22:08:42.722Z,98295.44
2023-06-14T22:11:35.346Z,98287.34
2023-06-14T22:14:25.789Z,98280.13
2023-06-14T22:17:14.667Z,98297.06
2023-06-14T22:20:06.805Z,98290.00
2023-06-14T22:22:56.788Z,98292.66
2023-06-14T22:25:46.230Z,98299.91
2023-06-14T22:28:46.796Z,98290.38
2023-06-14T22:31:38.546Z,98296.75
2023-06-14T22:34:27.180Z,98294.00
2023-06-14T22:37:19.439Z,98295.66
2023-06-14T22:40:12.685Z,98297.69
2023-06-14T22:43:01.570Z,98299.28
2023-06-14T22:45:52.754Z,98310.81
2023-06-14T22:48:47.007Z,98293.44
2023-06-14T22:51:39.163Z,98297.72
2023-06-14T22:54:31.275Z,98306.59
2023-06-14T22:57:21.540Z,98298.50
2023-06-14T23:00:12.949Z,98311.06
2023-06-14T23:03:05.157Z,98299.84
2023-06-14T23:05:54.320Z,98309.06
2023-06-14T23:08:45.626Z,98309.19
2023-06-14T23:11:34.793Z,98305.44
2023-06-14T23:14:25.928Z,98300.84
2023-06-14T23:17:14.615Z,98301.44
2023-06-14T23:20:09.371Z,98300.75
2023-06-14T23:22:58.672Z,98308.53
2023-06-14T23:25:49.610Z,98300.44
2023-06-14T23:28:38.606Z,98302.19
2023-06-14T23:31:27.627Z,98290.16
2023-06-14T23:34:16.223Z,98299.00
2023-06-14T23:37:09.823Z,98307.81
2023-06-14T23:39:57.792Z,98300.06
2023-06-14T23:42:46.602Z,98307.50
2023-06-14T23:45:35.743Z,98295.84
2023-06-14T23:48:27.425Z,98298.47
2023-06-14T23:51:16.775Z,98297.19
2023-06-14T23:54:10.960Z,98304.97
2023-06-14T23:57:01.760Z,98303.03
2023-06-14T23:59:51.500Z,98304.16
